sensor_id;sensor_type;location;lat;lon;timestamp;P1;durP1;ratioP1;P2;durP2;ratioP2
58196;SDS011;43999;51.660;5.616;2023-06-26T00:00:11;19.77;;;18.10;;
58196;SDS011;43999;51.660;5.616;2023-06-26T00:02:39;17.50;;;16.10;;
58196;SDS011;43999;51.660;5.616;2023-06-26T00:05:07;17.05;;;15.75;;
58196;SDS011;43999;51.660;5.616;2023-06-26T00:07:35;17.17;;;15.77;;
58196;SDS011;43999;51.660;5.616;2023-06-26T00:10:03;15.80;;;14.60;;
58196;SDS011;43999;51.660;5.616;2023-06-26T00:12:32;19.27;;;17.65;;
58196;SDS011;43999;51.660;5.616;2023-06-26T00:14:59;19.00;;;17.50;;
58196;SDS011;43999;51.660;5.616;2023-06-26T00:17:27;18.35;;;16.55;;
58196;SDS011;43999;51.660;5.616;2023-06-26T00:19:54;17.30;;;15.80;;
58196;SDS011;43999;51.660;5.616;2023-06-26T00:22:22;17.10;;;15.70;;
58196;SDS011;43999;51.660;5.616;2023-06-26T00:24:49;16.02;;;14.77;;
58196;SDS011;43999;51.660;5.616;2023-06-26T00:27:16;17.02;;;15.73;;
58196;SDS011;43999;51.660;5.616;2023-06-26T00:29:43;17.60;;;16.13;;
58196;SDS011;43999;51.660;5.616;2023-06-26T00:32:11;16.65;;;15.35;;
58196;SDS011;43999;51.660;5.616;2023-06-26T00:34:38;17.83;;;16.05;;
58196;SDS011;43999;51.660;5.616;2023-06-26T00:37:07;16.92;;;15.52;;
58196;SDS011;43999;51.660;5.616;2023-06-26T00:39:35;15.65;;;14.55;;
58196;SDS011;43999;51.660;5.616;2023-06-26T00:42:02;17.83;;;16.52;;
58196;SDS011;43999;51.660;5.616;2023-06-26T00:44:29;16.70;;;15.30;;
58196;SDS011;43999;51.660;5.616;2023-06-26T00:46:57;15.73;;;14.38;;
58196;SDS011;43999;51.660;5.616;2023-06-26T00:49:24;14.77;;;13.57;;
58196;SDS011;43999;51.660;5.616;2023-06-26T00:51:55;13.77;;;12.77;;
58196;SDS011;43999;51.660;5.616;2023-06-26T00:54:23;13.82;;;12.63;;
58196;SDS011;43999;51.660;5.616;2023-06-26T00:56:51;12.38;;;11.38;;
58196;SDS011;43999;51.660;5.616;2023-06-26T00:59:19;14.05;;;12.95;;
58196;SDS011;43999;51.660;5.616;2023-06-26T01:01:47;12.52;;;11.52;;
58196;SDS011;43999;51.660;5.616;2023-06-26T01:04:15;14.32;;;13.13;;
58196;SDS011;43999;51.660;5.616;2023-06-26T01:06:46;11.38;;;10.48;;
58196;SDS011;43999;51.660;5.616;2023-06-26T01:09:17;12.35;;;11.15;;
58196;SDS011;43999;51.660;5.616;2023-06-26T01:11:49;14.60;;;13.40;;
58196;SDS011;43999;51.660;5.616;2023-06-26T01:14:17;11.73;;;10.82;;
58196;SDS011;43999;51.660;5.616;2023-06-26T01:16:44;13.95;;;12.85;;
58196;SDS011;43999;51.660;5.616;2023-06-26T01:19:20;14.25;;;13.15;;
58196;SDS011;43999;51.660;5.616;2023-06-26T01:21:58;12.13;;;11.13;;
58196;SDS011;43999;51.660;5.616;2023-06-26T01:25:11;13.68;;;12.57;;
58196;SDS011;43999;51.660;5.616;2023-06-26T01:28:05;11.57;;;10.65;;
58196;SDS011;43999;51.660;5.616;2023-06-26T01:30:37;12.93;;;11.82;;
58196;SDS011;43999;51.660;5.616;2023-06-26T01:33:12;11.35;;;10.23;;
58196;SDS011;43999;51.660;5.616;2023-06-26T01:35:41;12.77;;;11.57;;
58196;SDS011;43999;51.660;5.616;2023-06-26T01:38:15;12.15;;;11.05;;
58196;SDS011;43999;51.660;5.616;2023-06-26T01:40:47;10.10;;;9.27;;
58196;SDS011;43999;51.660;5.616;2023-06-26T01:46:31;10.88;;;9.82;;
58196;SDS011;43999;51.660;5.616;2023-06-26T01:49:36;9.75;;;8.95;;
58196;SDS011;43999;51.660;5.616;2023-06-26T01:58:08;7.72;;;7.00;;
58196;SDS011;43999;51.660;5.616;2023-06-26T02:00:36;8.07;;;7.32;;
58196;SDS011;43999;51.660;5.616;2023-06-26T02:03:05;8.13;;;7.05;;
58196;SDS011;43999;51.660;5.616;2023-06-26T02:05:33;7.88;;;7.07;;
58196;SDS011;43999;51.660;5.616;2023-06-26T02:08:00;6.95;;;6.22;;
58196;SDS011;43999;51.660;5.616;2023-06-26T02:10:29;8.73;;;6.72;;
58196;SDS011;43999;51.660;5.616;2023-06-26T02:12:57;7.47;;;5.43;;
58196;SDS011;43999;51.660;5.616;2023-06-26T02:15:24;7.93;;;6.63;;
58196;SDS011;43999;51.660;5.616;2023-06-26T02:17:53;9.23;;;6.22;;
58196;SDS011;43999;51.660;5.616;2023-06-26T02:20:20;7.88;;;6.00;;
58196;SDS011;43999;51.660;5.616;2023-06-26T02:22:47;8.52;;;6.28;;
58196;SDS011;43999;51.660;5.616;2023-06-26T02:25:15;7.03;;;5.78;;
58196;SDS011;43999;51.660;5.616;2023-06-26T02:27:44;8.63;;;5.47;;
58196;SDS011;43999;51.660;5.616;2023-06-26T02:30:12;7.45;;;6.05;;
58196;SDS011;43999;51.660;5.616;2023-06-26T02:32:39;10.48;;;6.18;;
58196;SDS011;43999;51.660;5.616;2023-06-26T02:35:07;9.73;;;7.15;;
58196;SDS011;43999;51.660;5.616;2023-06-26T02:37:38;8.13;;;5.90;;
58196;SDS011;43999;51.660;5.616;2023-06-26T02:40:06;9.35;;;5.80;;
58196;SDS011;43999;51.660;5.616;2023-06-26T02:42:37;12.13;;;6.50;;
58196;SDS011;43999;51.660;5.616;2023-06-26T02:45:04;8.93;;;7.07;;
58196;SDS011;43999;51.660;5.616;2023-06-26T02:47:33;9.95;;;6.60;;
58196;SDS011;43999;51.660;5.616;2023-06-26T02:50:01;10.55;;;6.18;;
58196;SDS011;43999;51.660;5.616;2023-06-26T02:52:41;9.23;;;6.60;;
58196;SDS011;43999;51.660;5.616;2023-06-26T02:55:09;10.15;;;6.32;;
58196;SDS011;43999;51.660;5.616;2023-06-26T02:57:36;7.30;;;6.22;;
58196;SDS011;43999;51.660;5.616;2023-06-26T03:00:04;9.98;;;6.90;;
58196;SDS011;43999;51.660;5.616;2023-06-26T03:02:40;10.88;;;7.15;;
58196;SDS011;43999;51.660;5.616;2023-06-26T03:05:10;8.43;;;6.70;;
58196;SDS011;43999;51.660;5.616;2023-06-26T03:07:39;9.13;;;6.55;;
58196;SDS011;43999;51.660;5.616;2023-06-26T03:10:07;10.50;;;6.60;;
58196;SDS011;43999;51.660;5.616;2023-06-26T03:12:35;8.75;;;6.40;;
58196;SDS011;43999;51.660;5.616;2023-06-26T03:15:02;10.07;;;7.18;;
58196;SDS011;43999;51.660;5.616;2023-06-26T03:17:32;8.38;;;6.60;;
58196;SDS011;43999;51.660;5.616;2023-06-26T03:20:04;8.70;;;7.93;;
58196;SDS011;43999;51.660;5.616;2023-06-26T03:22:45;8.25;;;6.45;;
58196;SDS011;43999;51.660;5.616;2023-06-26T03:25:13;8.20;;;6.97;;
58196;SDS011;43999;51.660;5.616;2023-06-26T03:27:41;10.70;;;7.72;;
58196;SDS011;43999;51.660;5.616;2023-06-26T03:30:10;10.68;;;7.47;;
58196;SDS011;43999;51.660;5.616;2023-06-26T03:32:44;8.85;;;7.25;;
58196;SDS011;43999;51.660;5.616;2023-06-26T03:35:31;14.25;;;7.50;;
58196;SDS011;43999;51.660;5.616;2023-06-26T03:38:19;10.90;;;7.65;;
58196;SDS011;43999;51.660;5.616;2023-06-26T03:41:08;10.90;;;6.93;;
58196;SDS011;43999;51.660;5.616;2023-06-26T03:43:35;10.82;;;7.40;;
58196;SDS011;43999;51.660;5.616;2023-06-26T03:46:36;8.88;;;6.85;;
58196;SDS011;43999;51.660;5.616;2023-06-26T03:49:17;13.15;;;7.40;;
58196;SDS011;43999;51.660;5.616;2023-06-26T03:52:05;8.10;;;7.25;;
58196;SDS011;43999;51.660;5.616;2023-06-26T03:54:33;12.65;;;7.70;;
58196;SDS011;43999;51.660;5.616;2023-06-26T04:00:08;10.52;;;7.25;;
58196;SDS011;43999;51.660;5.616;2023-06-26T04:03:01;8.73;;;7.40;;
58196;SDS011;43999;51.660;5.616;2023-06-26T04:05:30;10.43;;;7.10;;
58196;SDS011;43999;51.660;5.616;2023-06-26T04:08:18;13.05;;;8.13;;
58196;SDS011;43999;51.660;5.616;2023-06-26T04:11:07;9.60;;;6.93;;
58196;SDS011;43999;51.660;5.616;2023-06-26T04:16:41;11.02;;;7.03;;
58196;SDS011;43999;51.660;5.616;2023-06-26T04:19:29;12.73;;;8.00;;
58196;SDS011;43999;51.660;5.616;2023-06-26T04:22:17;13.60;;;8.70;;
58196;SDS011;43999;51.660;5.616;2023-06-26T04:27:52;11.98;;;8.95;;
58196;SDS011;43999;51.660;5.616;2023-06-26T04:33:27;10.93;;;8.25;;
58196;SDS011;43999;51.660;5.616;2023-06-26T04:36:14;12.18;;;7.35;;
58196;SDS011;43999;51.660;5.616;2023-06-26T04:39:02;15.77;;;9.60;;
58196;SDS011;43999;51.660;5.616;2023-06-26T04:41:51;12.70;;;8.40;;
58196;SDS011;43999;51.660;5.616;2023-06-26T04:44:39;16.75;;;7.80;;
58196;SDS011;43999;51.660;5.616;2023-06-26T04:47:27;9.30;;;7.45;;
58196;SDS011;43999;51.660;5.616;2023-06-26T04:50:15;16.60;;;8.15;;
58196;SDS011;43999;51.660;5.616;2023-06-26T04:53:05;11.30;;;8.10;;
58196;SDS011;43999;51.660;5.616;2023-06-26T04:55:52;15.70;;;8.40;;
58196;SDS011;43999;51.660;5.616;2023-06-26T04:58:39;11.38;;;7.97;;
58196;SDS011;43999;51.660;5.616;2023-06-26T05:04:16;11.70;;;8.77;;
58196;SDS011;43999;51.660;5.616;2023-06-26T05:07:04;11.73;;;8.52;;
58196;SDS011;43999;51.660;5.616;2023-06-26T05:09:51;17.83;;;10.30;;
58196;SDS011;43999;51.660;5.616;2023-06-26T05:12:39;21.50;;;9.23;;
58196;SDS011;43999;51.660;5.616;2023-06-26T05:18:13;15.60;;;8.57;;
58196;SDS011;43999;51.660;5.616;2023-06-26T05:21:01;15.40;;;8.98;;
58196;SDS011;43999;51.660;5.616;2023-06-26T05:23:49;16.23;;;8.90;;
58196;SDS011;43999;51.660;5.616;2023-06-26T05:26:43;15.38;;;8.93;;
58196;SDS011;43999;51.660;5.616;2023-06-26T05:29:31;16.73;;;8.52;;
58196;SDS011;43999;51.660;5.616;2023-06-26T05:32:24;15.85;;;9.40;;
58196;SDS011;43999;51.660;5.616;2023-06-26T05:35:12;18.48;;;9.50;;
58196;SDS011;43999;51.660;5.616;2023-06-26T05:38:00;14.00;;;9.93;;
58196;SDS011;43999;51.660;5.616;2023-06-26T05:40:49;14.95;;;8.00;;
58196;SDS011;43999;51.660;5.616;2023-06-26T05:43:36;15.02;;;8.93;;
58196;SDS011;43999;51.660;5.616;2023-06-26T05:49:11;18.23;;;8.68;;
58196;SDS011;43999;51.660;5.616;2023-06-26T05:52:00;16.77;;;7.85;;
58196;SDS011;43999;51.660;5.616;2023-06-26T05:54:48;14.50;;;8.38;;
58196;SDS011;43999;51.660;5.616;2023-06-26T05:57:36;15.18;;;8.35;;
58196;SDS011;43999;51.660;5.616;2023-06-26T06:00:27;13.35;;;9.00;;
58196;SDS011;43999;51.660;5.616;2023-06-26T06:03:16;16.65;;;7.88;;
58196;SDS011;43999;51.660;5.616;2023-06-26T06:06:04;15.88;;;8.80;;
58196;SDS011;43999;51.660;5.616;2023-06-26T06:08:51;13.18;;;7.55;;
58196;SDS011;43999;51.660;5.616;2023-06-26T06:11:39;12.15;;;7.28;;
58196;SDS011;43999;51.660;5.616;2023-06-26T06:14:27;14.95;;;7.78;;
58196;SDS011;43999;51.660;5.616;2023-06-26T06:17:15;12.15;;;8.57;;
58196;SDS011;43999;51.660;5.616;2023-06-26T06:22:50;22.33;;;8.82;;
58196;SDS011;43999;51.660;5.616;2023-06-26T06:25:38;10.95;;;7.80;;
58196;SDS011;43999;51.660;5.616;2023-06-26T06:28:25;11.43;;;7.70;;
58196;SDS011;43999;51.660;5.616;2023-06-26T06:31:12;12.30;;;7.45;;
58196;SDS011;43999;51.660;5.616;2023-06-26T06:34:00;16.38;;;8.52;;
58196;SDS011;43999;51.660;5.616;2023-06-26T06:36:47;12.57;;;7.30;;
58196;SDS011;43999;51.660;5.616;2023-06-26T06:39:36;12.70;;;7.20;;
58196;SDS011;43999;51.660;5.616;2023-06-26T06:45:11;17.67;;;7.25;;
58196;SDS011;43999;51.660;5.616;2023-06-26T06:47:59;11.98;;;7.13;;
58196;SDS011;43999;51.660;5.616;2023-06-26T06:50:48;12.80;;;7.07;;
58196;SDS011;43999;51.660;5.616;2023-06-26T06:53:35;7.88;;;5.70;;
58196;SDS011;43999;51.660;5.616;2023-06-26T06:56:22;15.30;;;6.03;;
58196;SDS011;43999;51.660;5.616;2023-06-26T07:01:56;13.63;;;6.13;;
58196;SDS011;43999;51.660;5.616;2023-06-26T07:04:44;12.35;;;6.25;;
58196;SDS011;43999;51.660;5.616;2023-06-26T07:07:32;11.98;;;5.88;;
58196;SDS011;43999;51.660;5.616;2023-06-26T07:10:21;9.27;;;6.03;;
58196;SDS011;43999;51.660;5.616;2023-06-26T07:13:08;11.25;;;6.18;;
58196;SDS011;43999;51.660;5.616;2023-06-26T07:15:55;12.00;;;5.53;;
58196;SDS011;43999;51.660;5.616;2023-06-26T07:18:43;8.70;;;5.22;;
58196;SDS011;43999;51.660;5.616;2023-06-26T07:21:30;8.80;;;4.93;;
58196;SDS011;43999;51.660;5.616;2023-06-26T07:24:17;10.27;;;5.30;;
58196;SDS011;43999;51.660;5.616;2023-06-26T07:27:06;10.55;;;5.70;;
58196;SDS011;43999;51.660;5.616;2023-06-26T07:29:53;14.15;;;6.50;;
58196;SDS011;43999;51.660;5.616;2023-06-26T07:32:40;9.27;;;4.75;;
58196;SDS011;43999;51.660;5.616;2023-06-26T07:35:29;6.97;;;5.43;;
58196;SDS011;43999;51.660;5.616;2023-06-26T07:38:16;7.47;;;5.88;;
58196;SDS011;43999;51.660;5.616;2023-06-26T07:41:03;10.18;;;6.00;;
58196;SDS011;43999;51.660;5.616;2023-06-26T07:43:51;8.73;;;6.35;;
58196;SDS011;43999;51.660;5.616;2023-06-26T07:46:38;7.88;;;5.00;;
58196;SDS011;43999;51.660;5.616;2023-06-26T07:49:25;10.77;;;4.95;;
58196;SDS011;43999;51.660;5.616;2023-06-26T07:52:14;8.93;;;5.60;;
58196;SDS011;43999;51.660;5.616;2023-06-26T07:55:02;8.73;;;5.32;;
58196;SDS011;43999;51.660;5.616;2023-06-26T07:57:50;10.65;;;5.22;;
58196;SDS011;43999;51.660;5.616;2023-06-26T08:00:38;8.68;;;5.70;;
58196;SDS011;43999;51.660;5.616;2023-06-26T08:03:27;7.57;;;5.65;;
58196;SDS011;43999;51.660;5.616;2023-06-26T08:06:21;10.70;;;6.65;;
58196;SDS011;43999;51.660;5.616;2023-06-26T08:09:08;9.88;;;5.63;;
58196;SDS011;43999;51.660;5.616;2023-06-26T08:11:56;14.10;;;10.85;;
58196;SDS011;43999;51.660;5.616;2023-06-26T08:14:44;9.45;;;5.72;;
58196;SDS011;43999;51.660;5.616;2023-06-26T08:17:31;10.95;;;5.97;;
58196;SDS011;43999;51.660;5.616;2023-06-26T08:20:19;7.30;;;5.30;;
58196;SDS011;43999;51.660;5.616;2023-06-26T08:23:06;7.22;;;5.20;;
58196;SDS011;43999;51.660;5.616;2023-06-26T08:25:54;8.57;;;5.55;;
58196;SDS011;43999;51.660;5.616;2023-06-26T08:28:45;6.57;;;4.50;;
58196;SDS011;43999;51.660;5.616;2023-06-26T08:31:32;6.72;;;4.40;;
58196;SDS011;43999;51.660;5.616;2023-06-26T08:34:20;4.55;;;2.92;;
58196;SDS011;43999;51.660;5.616;2023-06-26T08:37:08;14.20;;;2.92;;
58196;SDS011;43999;51.660;5.616;2023-06-26T08:39:55;5.03;;;2.75;;
58196;SDS011;43999;51.660;5.616;2023-06-26T08:42:42;3.83;;;2.70;;
58196;SDS011;43999;51.660;5.616;2023-06-26T08:45:30;4.93;;;2.45;;
58196;SDS011;43999;51.660;5.616;2023-06-26T08:48:17;5.80;;;2.75;;
58196;SDS011;43999;51.660;5.616;2023-06-26T08:51:12;5.55;;;3.10;;
58196;SDS011;43999;51.660;5.616;2023-06-26T08:54:05;4.07;;;3.05;;
58196;SDS011;43999;51.660;5.616;2023-06-26T08:57:01;5.07;;;2.60;;
58196;SDS011;43999;51.660;5.616;2023-06-26T08:59:52;5.45;;;2.53;;
58196;SDS011;43999;51.660;5.616;2023-06-26T09:02:40;7.10;;;2.90;;
58196;SDS011;43999;51.660;5.616;2023-06-26T09:05:31;5.03;;;3.03;;
58196;SDS011;43999;51.660;5.616;2023-06-26T09:08:18;5.70;;;2.65;;
58196;SDS011;43999;51.660;5.616;2023-06-26T09:11:06;8.70;;;2.70;;
58196;SDS011;43999;51.660;5.616;2023-06-26T09:13:53;6.05;;;2.88;;
58196;SDS011;43999;51.660;5.616;2023-06-26T09:16:42;3.60;;;2.17;;
58196;SDS011;43999;51.660;5.616;2023-06-26T09:19:30;5.90;;;2.33;;
58196;SDS011;43999;51.660;5.616;2023-06-26T09:22:20;3.42;;;2.00;;
58196;SDS011;43999;51.660;5.616;2023-06-26T09:25:09;7.07;;;2.85;;
58196;SDS011;43999;51.660;5.616;2023-06-26T09:27:58;3.83;;;2.10;;
58196;SDS011;43999;51.660;5.616;2023-06-26T09:30:46;3.70;;;2.40;;
58196;SDS011;43999;51.660;5.616;2023-06-26T09:33:34;4.05;;;2.05;;
58196;SDS011;43999;51.660;5.616;2023-06-26T09:36:26;8.27;;;2.22;;
58196;SDS011;43999;51.660;5.616;2023-06-26T09:39:24;4.55;;;2.22;;
58196;SDS011;43999;51.660;5.616;2023-06-26T09:42:13;3.83;;;2.22;;
58196;SDS011;43999;51.660;5.616;2023-06-26T09:45:02;3.88;;;2.35;;
58196;SDS011;43999;51.660;5.616;2023-06-26T09:47:49;5.82;;;2.17;;
58196;SDS011;43999;51.660;5.616;2023-06-26T09:50:37;5.43;;;1.98;;
58196;SDS011;43999;51.660;5.616;2023-06-26T09:53:46;3.53;;;2.03;;
58196;SDS011;43999;51.660;5.616;2023-06-26T09:56:35;3.45;;;1.77;;
58196;SDS011;43999;51.660;5.616;2023-06-26T09:59:22;5.80;;;2.35;;
58196;SDS011;43999;51.660;5.616;2023-06-26T10:02:10;7.95;;;2.50;;
58196;SDS011;43999;51.660;5.616;2023-06-26T10:04:59;4.85;;;2.85;;
58196;SDS011;43999;51.660;5.616;2023-06-26T10:07:46;4.30;;;2.40;;
58196;SDS011;43999;51.660;5.616;2023-06-26T10:10:35;3.55;;;2.40;;
58196;SDS011;43999;51.660;5.616;2023-06-26T10:13:26;4.47;;;2.80;;
58196;SDS011;43999;51.660;5.616;2023-06-26T10:16:22;12.30;;;4.22;;
58196;SDS011;43999;51.660;5.616;2023-06-26T10:19:16;5.10;;;2.17;;
58196;SDS011;43999;51.660;5.616;2023-06-26T10:22:17;5.70;;;2.63;;
58196;SDS011;43999;51.660;5.616;2023-06-26T10:25:08;5.35;;;2.88;;
58196;SDS011;43999;51.660;5.616;2023-06-26T10:27:58;3.88;;;2.22;;
58196;SDS011;43999;51.660;5.616;2023-06-26T10:30:50;4.13;;;1.92;;
58196;SDS011;43999;51.660;5.616;2023-06-26T10:33:40;6.85;;;2.08;;
58196;SDS011;43999;51.660;5.616;2023-06-26T10:36:29;3.50;;;2.22;;
58196;SDS011;43999;51.660;5.616;2023-06-26T10:39:18;5.75;;;1.90;;
58196;SDS011;43999;51.660;5.616;2023-06-26T10:42:08;3.10;;;1.52;;
58196;SDS011;43999;51.660;5.616;2023-06-26T10:44:57;3.63;;;1.60;;
58196;SDS011;43999;51.660;5.616;2023-06-26T10:48:04;4.18;;;1.67;;
58196;SDS011;43999;51.660;5.616;2023-06-26T10:50:51;3.33;;;1.52;;
58196;SDS011;43999;51.660;5.616;2023-06-26T10:53:40;6.32;;;1.83;;
58196;SDS011;43999;51.660;5.616;2023-06-26T10:59:32;4.20;;;2.05;;
58196;SDS011;43999;51.660;5.616;2023-06-26T11:02:21;3.80;;;1.73;;
58196;SDS011;43999;51.660;5.616;2023-06-26T11:05:12;4.15;;;1.48;;
58196;SDS011;43999;51.660;5.616;2023-06-26T11:08:15;4.75;;;1.63;;
58196;SDS011;43999;51.660;5.616;2023-06-26T11:11:05;5.97;;;2.17;;
58196;SDS011;43999;51.660;5.616;2023-06-26T11:13:52;4.13;;;1.92;;
58196;SDS011;43999;51.660;5.616;2023-06-26T11:16:45;3.80;;;2.10;;
58196;SDS011;43999;51.660;5.616;2023-06-26T11:19:32;3.72;;;1.88;;
58196;SDS011;43999;51.660;5.616;2023-06-26T11:22:21;3.28;;;1.77;;
58196;SDS011;43999;51.660;5.616;2023-06-26T11:25:11;3.05;;;1.90;;
58196;SDS011;43999;51.660;5.616;2023-06-26T11:27:58;4.40;;;2.50;;
58196;SDS011;43999;51.660;5.616;2023-06-26T11:30:46;4.93;;;1.90;;
58196;SDS011;43999;51.660;5.616;2023-06-26T11:33:33;4.68;;;2.13;;
58196;SDS011;43999;51.660;5.616;2023-06-26T11:36:22;5.57;;;2.10;;
58196;SDS011;43999;51.660;5.616;2023-06-26T11:39:12;3.10;;;1.55;;
58196;SDS011;43999;51.660;5.616;2023-06-26T11:41:59;5.70;;;1.92;;
58196;SDS011;43999;51.660;5.616;2023-06-26T11:44:48;5.53;;;2.15;;
58196;SDS011;43999;51.660;5.616;2023-06-26T11:47:35;5.03;;;2.15;;
58196;SDS011;43999;51.660;5.616;2023-06-26T11:50:26;4.13;;;1.70;;
58196;SDS011;43999;51.660;5.616;2023-06-26T11:53:14;3.88;;;2.20;;
58196;SDS011;43999;51.660;5.616;2023-06-26T11:56:07;5.63;;;2.92;;
58196;SDS011;43999;51.660;5.616;2023-06-26T11:59:00;4.32;;;1.90;;
58196;SDS011;43999;51.660;5.616;2023-06-26T12:01:58;6.80;;;2.58;;
58196;SDS011;43999;51.660;5.616;2023-06-26T12:04:46;4.78;;;1.95;;
58196;SDS011;43999;51.660;5.616;2023-06-26T12:07:35;3.33;;;2.10;;
58196;SDS011;43999;51.660;5.616;2023-06-26T12:10:24;4.88;;;2.08;;
58196;SDS011;43999;51.660;5.616;2023-06-26T12:13:13;2.90;;;2.05;;
58196;SDS011;43999;51.660;5.616;2023-06-26T12:16:01;4.85;;;2.00;;
58196;SDS011;43999;51.660;5.616;2023-06-26T12:18:49;5.43;;;1.92;;
58196;SDS011;43999;51.660;5.616;2023-06-26T12:24:25;4.35;;;1.92;;
58196;SDS011;43999;51.660;5.616;2023-06-26T12:27:14;2.95;;;1.75;;
58196;SDS011;43999;51.660;5.616;2023-06-26T12:30:06;5.03;;;1.95;;
58196;SDS011;43999;51.660;5.616;2023-06-26T12:32:54;2.90;;;1.58;;
58196;SDS011;43999;51.660;5.616;2023-06-26T12:35:42;5.28;;;2.45;;
58196;SDS011;43999;51.660;5.616;2023-06-26T12:38:33;4.93;;;2.10;;
58196;SDS011;43999;51.660;5.616;2023-06-26T12:41:24;3.63;;;2.10;;
58196;SDS011;43999;51.660;5.616;2023-06-26T12:44:18;4.13;;;1.98;;
58196;SDS011;43999;51.660;5.616;2023-06-26T12:47:06;5.40;;;1.65;;
58196;SDS011;43999;51.660;5.616;2023-06-26T12:49:54;6.07;;;2.35;;
58196;SDS011;43999;51.660;5.616;2023-06-26T12:52:42;3.95;;;2.40;;
58196;SDS011;43999;51.660;5.616;2023-06-26T12:55:29;5.35;;;2.28;;
58196;SDS011;43999;51.660;5.616;2023-06-26T12:58:17;3.97;;;1.98;;
58196;SDS011;43999;51.660;5.616;2023-06-26T13:01:06;3.83;;;2.03;;
58196;SDS011;43999;51.660;5.616;2023-06-26T13:04:01;5.68;;;2.33;;
58196;SDS011;43999;51.660;5.616;2023-06-26T13:06:50;5.05;;;2.40;;
58196;SDS011;43999;51.660;5.616;2023-06-26T13:09:41;3.97;;;2.30;;
58196;SDS011;43999;51.660;5.616;2023-06-26T13:12:30;5.88;;;2.50;;
58196;SDS011;43999;51.660;5.616;2023-06-26T13:15:17;4.78;;;2.50;;
58196;SDS011;43999;51.660;5.616;2023-06-26T13:18:04;5.18;;;2.35;;
58196;SDS011;43999;51.660;5.616;2023-06-26T13:20:52;3.67;;;1.67;;
58196;SDS011;43999;51.660;5.616;2023-06-26T13:23:40;7.07;;;1.95;;
58196;SDS011;43999;51.660;5.616;2023-06-26T13:26:27;8.50;;;1.85;;
58196;SDS011;43999;51.660;5.616;2023-06-26T13:29:23;3.00;;;1.90;;
58196;SDS011;43999;51.660;5.616;2023-06-26T13:32:10;3.50;;;1.55;;
58196;SDS011;43999;51.660;5.616;2023-06-26T13:34:57;3.50;;;2.15;;
58196;SDS011;43999;51.660;5.616;2023-06-26T13:37:45;3.85;;;1.80;;
58196;SDS011;43999;51.660;5.616;2023-06-26T13:40:33;4.53;;;1.70;;
58196;SDS011;43999;51.660;5.616;2023-06-26T13:43:21;4.40;;;1.95;;
58196;SDS011;43999;51.660;5.616;2023-06-26T13:46:09;3.20;;;1.50;;
58196;SDS011;43999;51.660;5.616;2023-06-26T13:48:56;2.50;;;1.65;;
58196;SDS011;43999;51.660;5.616;2023-06-26T13:51:43;3.08;;;1.58;;
58196;SDS011;43999;51.660;5.616;2023-06-26T13:54:36;3.65;;;1.90;;
58196;SDS011;43999;51.660;5.616;2023-06-26T13:57:28;2.92;;;1.77;;
58196;SDS011;43999;51.660;5.616;2023-06-26T14:00:18;6.15;;;2.15;;
58196;SDS011;43999;51.660;5.616;2023-06-26T14:03:08;2.88;;;1.63;;
58196;SDS011;43999;51.660;5.616;2023-06-26T14:05:56;4.43;;;1.98;;
58196;SDS011;43999;51.660;5.616;2023-06-26T14:08:43;5.60;;;1.63;;
58196;SDS011;43999;51.660;5.616;2023-06-26T14:11:31;5.35;;;2.22;;
58196;SDS011;43999;51.660;5.616;2023-06-26T14:14:19;2.55;;;1.58;;
58196;SDS011;43999;51.660;5.616;2023-06-26T14:17:06;3.13;;;2.00;;
58196;SDS011;43999;51.660;5.616;2023-06-26T14:19:55;3.40;;;2.13;;
58196;SDS011;43999;51.660;5.616;2023-06-26T14:22:43;3.47;;;2.00;;
58196;SDS011;43999;51.660;5.616;2023-06-26T14:25:31;3.60;;;1.63;;
58196;SDS011;43999;51.660;5.616;2023-06-26T14:28:19;5.05;;;1.95;;
58196;SDS011;43999;51.660;5.616;2023-06-26T14:31:06;3.63;;;2.00;;
58196;SDS011;43999;51.660;5.616;2023-06-26T14:33:53;5.07;;;1.80;;
58196;SDS011;43999;51.660;5.616;2023-06-26T14:36:41;4.10;;;2.30;;
58196;SDS011;43999;51.660;5.616;2023-06-26T14:39:29;5.70;;;2.08;;
58196;SDS011;43999;51.660;5.616;2023-06-26T14:42:17;4.22;;;2.42;;
58196;SDS011;43999;51.660;5.616;2023-06-26T14:45:07;3.53;;;2.30;;
58196;SDS011;43999;51.660;5.616;2023-06-26T14:47:56;3.78;;;2.40;;
58196;SDS011;43999;51.660;5.616;2023-06-26T14:50:43;4.10;;;1.98;;
58196;SDS011;43999;51.660;5.616;2023-06-26T14:53:31;5.68;;;1.95;;
58196;SDS011;43999;51.660;5.616;2023-06-26T14:56:18;3.95;;;2.28;;
58196;SDS011;43999;51.660;5.616;2023-06-26T14:59:05;3.72;;;2.30;;
58196;SDS011;43999;51.660;5.616;2023-06-26T15:01:53;4.80;;;2.00;;
58196;SDS011;43999;51.660;5.616;2023-06-26T15:04:41;3.58;;;2.72;;
58196;SDS011;43999;51.660;5.616;2023-06-26T15:07:28;3.85;;;2.03;;
58196;SDS011;43999;51.660;5.616;2023-06-26T15:10:16;4.05;;;2.78;;
58196;SDS011;43999;51.660;5.616;2023-06-26T15:13:04;6.68;;;2.08;;
58196;SDS011;43999;51.660;5.616;2023-06-26T15:15:52;5.10;;;2.10;;
58196;SDS011;43999;51.660;5.616;2023-06-26T15:18:40;2.45;;;1.70;;
58196;SDS011;43999;51.660;5.616;2023-06-26T15:21:28;4.80;;;2.15;;
58196;SDS011;43999;51.660;5.616;2023-06-26T15:24:15;3.03;;;2.25;;
58196;SDS011;43999;51.660;5.616;2023-06-26T15:27:03;3.60;;;1.95;;
58196;SDS011;43999;51.660;5.616;2023-06-26T15:29:52;5.32;;;2.95;;
58196;SDS011;43999;51.660;5.616;2023-06-26T15:32:40;6.90;;;2.50;;
58196;SDS011;43999;51.660;5.616;2023-06-26T15:35:27;4.00;;;1.90;;
58196;SDS011;43999;51.660;5.616;2023-06-26T15:38:14;3.35;;;2.58;;
58196;SDS011;43999;51.660;5.616;2023-06-26T15:41:02;4.60;;;2.30;;
58196;SDS011;43999;51.660;5.616;2023-06-26T15:43:49;6.25;;;2.28;;
58196;SDS011;43999;51.660;5.616;2023-06-26T15:46:36;5.45;;;2.72;;
58196;SDS011;43999;51.660;5.616;2023-06-26T15:49:24;3.88;;;2.47;;
58196;SDS011;43999;51.660;5.616;2023-06-26T15:52:11;5.13;;;2.30;;
58196;SDS011;43999;51.660;5.616;2023-06-26T15:54:58;5.03;;;2.67;;
58196;SDS011;43999;51.660;5.616;2023-06-26T15:57:46;3.75;;;2.13;;
58196;SDS011;43999;51.660;5.616;2023-06-26T16:00:33;5.30;;;2.40;;
58196;SDS011;43999;51.660;5.616;2023-06-26T16:03:20;4.72;;;2.22;;
58196;SDS011;43999;51.660;5.616;2023-06-26T16:06:08;6.45;;;2.92;;
58196;SDS011;43999;51.660;5.616;2023-06-26T16:08:56;5.60;;;2.83;;
58196;SDS011;43999;51.660;5.616;2023-06-26T16:11:44;2.45;;;1.60;;
58196;SDS011;43999;51.660;5.616;2023-06-26T16:14:31;4.70;;;2.45;;
58196;SDS011;43999;51.660;5.616;2023-06-26T16:17:18;5.68;;;2.53;;
58196;SDS011;43999;51.660;5.616;2023-06-26T16:20:06;3.70;;;2.33;;
58196;SDS011;43999;51.660;5.616;2023-06-26T16:22:54;6.28;;;2.10;;
58196;SDS011;43999;51.660;5.616;2023-06-26T16:25:42;5.00;;;2.83;;
58196;SDS011;43999;51.660;5.616;2023-06-26T16:28:31;4.97;;;2.25;;
58196;SDS011;43999;51.660;5.616;2023-06-26T16:31:19;4.43;;;1.80;;
58196;SDS011;43999;51.660;5.616;2023-06-26T16:34:06;3.90;;;1.88;;
58196;SDS011;43999;51.660;5.616;2023-06-26T16:36:53;3.83;;;2.33;;
58196;SDS011;43999;51.660;5.616;2023-06-26T16:39:41;4.43;;;1.90;;
58196;SDS011;43999;51.660;5.616;2023-06-26T16:42:28;3.05;;;1.75;;
58196;SDS011;43999;51.660;5.616;2023-06-26T16:45:15;4.78;;;2.60;;
58196;SDS011;43999;51.660;5.616;2023-06-26T16:48:03;5.25;;;2.20;;
58196;SDS011;43999;51.660;5.616;2023-06-26T16:50:51;6.50;;;1.90;;
58196;SDS011;43999;51.660;5.616;2023-06-26T16:53:39;3.53;;;1.63;;
58196;SDS011;43999;51.660;5.616;2023-06-26T16:56:26;4.53;;;2.35;;
58196;SDS011;43999;51.660;5.616;2023-06-26T16:59:14;3.50;;;1.90;;
58196;SDS011;43999;51.660;5.616;2023-06-26T17:02:01;2.83;;;1.90;;
58196;SDS011;43999;51.660;5.616;2023-06-26T17:04:49;5.75;;;2.83;;